createdAt,value
2023-05-20T00:00:26.736Z,25.00
2023-05-20T00:01:26.725Z,25.00
2023-05-20T00:02:26.788Z,25.00
2023-05-20T00:03:26.831Z,0.00
2023-05-20T00:04:26.732Z,0.00
2023-05-20T00:05:26.722Z,0.00
2023-05-20T00:06:26.732Z,0.00
2023-05-20T00:07:26.738Z,0.00
2023-05-20T00:08:26.736Z,0.00
2023-05-20T00:09:26.711Z,0.00
2023-05-20T00:10:26.725Z,2.43
2023-05-20T00:11:26.712Z,21.08
2023-05-20T00:12:26.698Z,24.06
2023-05-20T00:13:26.732Z,25.00
2023-05-20T00:14:26.709Z,25.42
2023-05-20T00:15:26.715Z,25.00
2023-05-20T00:16:26.722Z,26.35
2023-05-20T00:17:26.712Z,23.81
2023-05-20T00:18:26.734Z,26.73
2023-05-20T00:19:26.770Z,26.05
2023-05-20T00:20:26.675Z,25.95
2023-05-20T00:21:26.702Z,25.00
2023-05-20T00:22:26.667Z,28.00
2023-05-20T00:23:26.706Z,26.92
2023-05-20T00:24:26.673Z,26.14
2023-05-20T00:25:26.665Z,25.26
2023-05-20T00:26:26.702Z,25.00
2023-05-20T00:27:26.660Z,25.20
2023-05-20T00:28:26.658Z,26.05
2023-05-20T00:29:26.684Z,26.03
2023-05-20T00:30:26.655Z,25.00
2023-05-20T00:31:26.681Z,25.00
2023-05-20T00:32:27.004Z,26.76
2023-05-20T00:33:26.653Z,25.90
2023-05-20T00:34:26.642Z,25.99
2023-05-20T00:35:26.656Z,25.65
2023-05-20T00:36:26.639Z,30.29
2023-05-20T00:37:26.638Z,28.17
2023-05-20T00:38:26.635Z,25.70
2023-05-20T00:39:26.638Z,25.27
2023-05-20T00:40:26.689Z,28.63
2023-05-20T00:41:26.687Z,25.23
2023-05-20T00:42:26.694Z,25.16
2023-05-20T00:43:26.717Z,25.36
2023-05-20T00:44:26.701Z,25.00
2023-05-20T00:45:26.727Z,26.82
2023-05-20T00:46:26.828Z,25.29
2023-05-20T00:47:26.807Z,25.00
2023-05-20T00:48:26.744Z,25.97
2023-05-20T00:49:26.736Z,25.00
2023-05-20T00:50:26.752Z,26.89
2023-05-20T00:51:26.755Z,25.61
2023-05-20T00:52:26.763Z,25.57
2023-05-20T00:53:26.761Z,27.36
2023-05-20T00:54:26.792Z,26.29
2023-05-20T00:55:26.783Z,25.73
2023-05-20T00:56:26.796Z,25.00
2023-05-20T00:57:26.820Z,25.62
2023-05-20T00:58:26.809Z,26.14
2023-05-20T00:59:26.813Z,26.51
2023-05-20T01:00:26.831Z,26.61
2023-05-20T01:01:26.901Z,27.82
2023-05-20T01:02:26.953Z,27.14
2023-05-20T01:03:27.047Z,27.43
2023-05-20T01:04:26.862Z,26.87
2023-05-20T01:05:26.878Z,25.00
2023-05-20T01:06:26.881Z,27.57
2023-05-20T01:07:26.880Z,25.62
2023-05-20T01:08:26.897Z,26.80
2023-05-20T01:09:26.886Z,25.75
2023-05-20T01:10:26.898Z,25.29
2023-05-20T01:11:26.901Z,26.69
2023-05-20T01:12:26.911Z,25.88
2023-05-20T01:13:26.916Z,25.47
2023-05-20T01:14:26.916Z,26.95
2023-05-20T01:15:26.915Z,27.39
2023-05-20T01:16:26.990Z,28.25
2023-05-20T01:17:27.007Z,25.39
2023-05-20T01:18:26.973Z,26.41
2023-05-20T01:19:27.089Z,26.41
2023-05-20T01:20:26.966Z,26.73
2023-05-20T01:21:26.970Z,26.79
2023-05-20T01:22:26.991Z,25.81
2023-05-20T01:23:26.980Z,25.04
2023-05-20T01:24:26.988Z,25.13
2023-05-20T01:25:27.005Z,28.48
2023-05-20T01:26:27.173Z,26.60
2023-05-20T01:27:27.022Z,25.75
2023-05-20T01:28:27.028Z,26.05
2023-05-20T01:29:27.016Z,25.00
2023-05-20T01:30:27.016Z,28.23
2023-05-20T01:31:27.063Z,27.61
2023-05-20T01:32:27.073Z,28.07
2023-05-20T01:33:27.090Z,26.97
2023-05-20T01:34:27.039Z,28.24
2023-05-20T01:35:27.048Z,26.30
2023-05-20T01:36:27.051Z,27.44
2023-05-20T01:37:27.055Z,26.74
2023-05-20T01:38:27.059Z,26.53
2023-05-20T01:39:27.071Z,25.26
2023-05-20T01:40:27.068Z,26.76
2023-05-20T01:41:27.077Z,26.57
2023-05-20T01:42:27.083Z,27.17
2023-05-20T01:43:27.081Z,28.95
2023-05-20T01:44:27.084Z,27.68
2023-05-20T01:45:27.080Z,26.92
2023-05-20T01:46:27.144Z,26.47
2023-05-20T01:47:27.129Z,26.78
2023-05-20T01:48:27.101Z,27.04
2023-05-20T01:49:27.145Z,26.31
2023-05-20T01:50:27.125Z,26.13
2023-05-20T01:51:27.120Z,27.61
2023-05-20T01:52:27.149Z,26.63
2023-05-20T01:53:27.152Z,27.48
2023-05-20T01:54:27.213Z,26.86
2023-05-20T01:55:27.194Z,27.13
2023-05-20T01:56:27.216Z,25.91
2023-05-20T01:57:27.249Z,28.41
2023-05-20T01:58:27.257Z,25.52
2023-05-20T01:59:27.303Z,28.43
2023-05-20T02:00:27.317Z,27.63
2023-05-20T02:01:27.445Z,29.52
2023-05-20T02:02:27.498Z,27.15
2023-05-20T02:03:27.389Z,27.70
2023-05-20T02:04:27.394Z,27.68
2023-05-20T02:05:27.472Z,26.39
2023-05-20T02:06:27.486Z,26.24
2023-05-20T02:07:27.483Z,26.78
2023-05-20T02:08:27.518Z,25.00
2023-05-20T02:09:27.527Z,29.42
2023-05-20T02:10:27.557Z,26.78
2023-05-20T02:11:27.712Z,26.42
2023-05-20T02:12:27.579Z,25.37
2023-05-20T02:13:27.612Z,26.53
2023-05-20T02:14:27.626Z,26.42
2023-05-20T02:15:27.611Z,25.00
2023-05-20T02:16:27.676Z,27.42
2023-05-20T02:17:27.637Z,28.58
2023-05-20T02:18:27.664Z,27.23
2023-05-20T02:19:27.657Z,26.38
2023-05-20T02:20:27.655Z,26.44
2023-05-20T02:21:27.687Z,25.37
2023-05-20T02:22:27.672Z,26.58
2023-05-20T02:23:27.693Z,29.22
2023-05-20T02:24:27.689Z,26.63
2023-05-20T02:25:27.705Z,27.27
2023-05-20T02:26:27.717Z,27.49
2023-05-20T02:27:27.712Z,28.46
2023-05-20T02:28:27.718Z,29.68
2023-05-20T02:29:27.724Z,28.09
2023-05-20T02:30:27.733Z,28.95
2023-05-20T02:31:27.742Z,28.17
2023-05-20T02:32:27.744Z,28.39
2023-05-20T02:33:27.810Z,27.39
2023-05-20T02:34:27.941Z,25.00
2023-05-20T02:35:27.797Z,27.81
2023-05-20T02:36:27.784Z,28.13
2023-05-20T02:37:27.802Z,28.51
2023-05-20T02:38:27.796Z,25.79
2023-05-20T02:39:27.800Z,26.65
2023-05-20T02:40:27.815Z,27.09
2023-05-20T02:41:27.860Z,25.58
2023-05-20T02:42:27.828Z,28.74
2023-05-20T02:43:27.854Z,26.94
2023-05-20T02:44:27.854Z,28.05
2023-05-20T02:45:27.868Z,27.52
2023-05-20T02:46:27.919Z,27.36
2023-05-20T02:47:27.915Z,26.73
2023-05-20T02:48:27.908Z,27.52
2023-05-20T02:49:27.916Z,25.58
2023-05-20T02:50:27.920Z,27.00
2023-05-20T02:51:27.939Z,27.33
2023-05-20T02:52:27.943Z,26.52
2023-05-20T02:53:27.980Z,25.79
2023-05-20T02:54:27.957Z,25.00
2023-05-20T02:55:27.963Z,26.00
2023-05-20T02:56:27.970Z,26.62
2023-05-20T02:57:27.983Z,28.52
2023-05-20T02:58:28.027Z,26.91
2023-05-20T02:59:28.009Z,28.26
2023-05-20T03:00:28.023Z,28.13
2023-05-20T03:01:28.055Z,27.53
2023-05-20T03:02:28.060Z,28.04
2023-05-20T03:03:28.100Z,27.83
2023-05-20T03:04:28.156Z,27.25
2023-05-20T03:05:28.131Z,27.50
2023-05-20T03:06:28.072Z,26.72
2023-05-20T03:07:28.090Z,26.89
2023-05-20T03:08:28.093Z,28.19
2023-05-20T03:09:28.120Z,27.22
2023-05-20T03:10:28.101Z,27.60
2023-05-20T03:11:28.113Z,27.88
2023-05-20T03:12:28.198Z,26.09
2023-05-20T03:13:28.151Z,26.99
2023-05-20T03:14:28.154Z,27.52
2023-05-20T03:15:28.154Z,26.41
2023-05-20T03:16:28.403Z,25.34
2023-05-20T03:17:28.215Z,26.85
2023-05-20T03:18:28.173Z,27.43
2023-05-20T03:19:28.338Z,26.62
2023-05-20T03:20:28.206Z,27.43
2023-05-20T03:21:28.188Z,27.26
2023-05-20T03:22:28.203Z,26.98
2023-05-20T03:23:28.201Z,27.15
2023-05-20T03:24:28.216Z,27.20
2023-05-20T03:25:28.252Z,26.58
2023-05-20T03:26:28.241Z,27.66
2023-05-20T03:27:28.252Z,27.62
2023-05-20T03:28:28.258Z,26.14
2023-05-20T03:29:28.263Z,28.40
2023-05-20T03:30:28.288Z,29.03
2023-05-20T03:31:28.308Z,32.14
2023-05-20T03:32:28.333Z,32.03
2023-05-20T03:33:28.307Z,30.95
2023-05-20T03:34:28.325Z,31.20
2023-05-20T03:35:28.336Z,31.17
2023-05-20T03:36:28.336Z,29.84
2023-05-20T03:37:28.352Z,29.72
2023-05-20T03:38:28.381Z,28.24
2023-05-20T03:39:28.366Z,26.11
2023-05-20T03:40:28.366Z,26.14
2023-05-20T03:41:28.404Z,27.49
2023-05-20T03:42:28.383Z,27.63
2023-05-20T03:43:28.385Z,27.69
2023-05-20T03:44:28.391Z,26.19
2023-05-20T03:45:28.406Z,26.63
2023-05-20T03:46:28.411Z,27.39
2023-05-20T03:47:28.417Z,27.92
2023-05-20T03:48:28.383Z,28.88
2023-05-20T03:49:28.372Z,29.15
2023-05-20T03:50:28.381Z,28.64
2023-05-20T03:51:28.368Z,27.67
2023-05-20T03:52:28.374Z,29.20
2023-05-20T03:53:28.390Z,28.02
2023-05-20T03:54:28.373Z,26.33
2023-05-20T03:55:28.385Z,28.35
2023-05-20T03:56:28.416Z,26.94
2023-05-20T03:57:28.466Z,28.30
2023-05-20T03:58:28.468Z,26.79
2023-05-20T03:59:28.485Z,28.20
2023-05-20T04:00:28.525Z,26.80
2023-05-20T04:01:28.543Z,26.10
2023-05-20T04:02:28.679Z,26.60
2023-05-20T04:03:28.722Z,27.71
2023-05-20T04:04:28.698Z,27.27
2023-05-20T04:05:28.723Z,25.98
2023-05-20T04:06:28.766Z,26.66
2023-05-20T04:07:28.811Z,27.34
2023-05-20T04:08:28.886Z,27.08
2023-05-20T04:09:28.909Z,26.84
2023-05-20T04:10:28.975Z,26.64
2023-05-20T04:11:29.064Z,26.63
2023-05-20T04:12:29.140Z,25.79
2023-05-20T04:13:29.201Z,25.68
2023-05-20T04:14:29.237Z,28.09
2023-05-20T04:15:29.283Z,27.13
2023-05-20T04:16:29.389Z,27.68
2023-05-20T04:17:29.490Z,26.95
2023-05-20T04:18:29.480Z,27.88
2023-05-20T04:19:29.656Z,25.83
2023-05-20T04:20:29.603Z,26.78
2023-05-20T04:21:29.676Z,25.58
2023-05-20T04:22:29.736Z,28.25
2023-05-20T04:23:29.811Z,25.36
2023-05-20T04:24:29.883Z,27.63
2023-05-20T04:25:29.946Z,25.87
2023-05-20T04:26:30.020Z,27.72
2023-05-20T04:27:30.092Z,27.26
2023-05-20T04:28:30.161Z,27.31
2023-05-20T04:29:30.253Z,27.06
2023-05-20T04:30:30.293Z,26.75
2023-05-20T04:31:30.384Z,29.01
2023-05-20T04:32:30.451Z,28.51
2023-05-20T04:33:30.484Z,26.61
2023-05-20T04:34:30.546Z,26.81
2023-05-20T04:35:30.640Z,27.22
2023-05-20T04:36:30.660Z,28.02
2023-05-20T04:37:30.732Z,26.77
2023-05-20T04:38:30.779Z,25.82
2023-05-20T04:39:30.829Z,25.31
2023-05-20T04:40:30.915Z,28.34
2023-05-20T04:41:30.955Z,26.51
2023-05-20T04:42:31.020Z,27.39
2023-05-20T04:43:31.086Z,28.01
2023-05-20T04:44:31.151Z,26.36
2023-05-20T04:45:31.485Z,27.72
2023-05-20T04:46:31.405Z,26.55
2023-05-20T04:47:31.377Z,28.47
2023-05-20T04:48:31.407Z,26.33
2023-05-20T04:49:31.484Z,26.41
2023-05-20T04:50:31.548Z,26.53
2023-05-20T04:51:31.607Z,26.31
2023-05-20T04:52:31.668Z,27.33
2023-05-20T04:53:31.730Z,26.36
2023-05-20T04:54:31.803Z,27.16
2023-05-20T04:55:31.929Z,26.64
2023-05-20T04:56:31.919Z,26.09
2023-05-20T04:57:32.000Z,28.74
2023-05-20T04:58:32.064Z,25.00
2023-05-20T04:59:32.117Z,28.24
2023-05-20T05:00:32.170Z,27.45
2023-05-20T05:01:32.280Z,25.69
2023-05-20T05:02:32.316Z,28.44
2023-05-20T05:03:32.365Z,27.76
2023-05-20T05:04:32.456Z,28.43
2023-05-20T05:05:32.696Z,27.04
2023-05-20T05:06:32.565Z,25.79
2023-05-20T05:07:32.622Z,27.08
2023-05-20T05:08:32.687Z,27.42
2023-05-20T05:09:34.821Z,26.59
2023-05-20T05:10:32.756Z,27.23
2023-05-20T05:11:32.741Z,29.75
2023-05-20T05:12:32.725Z,27.77
2023-05-20T05:13:32.734Z,26.16
2023-05-20T05:14:32.721Z,25.79
2023-05-20T05:15:33.045Z,25.06
2023-05-20T05:16:32.885Z,25.00
2023-05-20T05:17:32.782Z,25.45
2023-05-20T05:18:32.705Z,25.57
2023-05-20T05:19:32.689Z,27.08
2023-05-20T05:20:32.690Z,25.76
2023-05-20T05:21:32.673Z,26.59
2023-05-20T05:22:32.671Z,25.68
2023-05-20T05:23:32.663Z,25.04
2023-05-20T05:24:32.668Z,27.31
2023-05-20T05:25:32.951Z,25.91
2023-05-20T05:26:32.679Z,29.55
2023-05-20T05:27:32.686Z,28.74
2023-05-20T05:28:32.670Z,28.64
2023-05-20T05:29:32.712Z,29.45
2023-05-20T05:30:32.674Z,30.43
2023-05-20T05:31:32.696Z,30.84
2023-05-20T05:32:32.830Z,30.52
2023-05-20T05:33:32.944Z,30.07
2023-05-20T05:34:32.856Z,32.30
2023-05-20T05:35:33.325Z,35.03
2023-05-20T05:36:32.977Z,33.53
2023-05-20T05:37:33.044Z,35.42
2023-05-20T05:38:33.103Z,33.07
2023-05-20T05:39:33.178Z,32.61
2023-05-20T05:40:33.240Z,35.02
2023-05-20T05:41:33.310Z,32.60
2023-05-20T05:42:33.379Z,33.81
2023-05-20T05:43:33.440Z,35.69
2023-05-20T05:44:33.516Z,34.22
2023-05-20T05:45:33.810Z,34.49
2023-05-20T05:46:33.685Z,35.48
2023-05-20T05:47:33.751Z,37.89
2023-05-20T05:48:33.782Z,38.59
2023-05-20T05:49:33.878Z,38.11
2023-05-20T05:50:33.907Z,36.92
2023-05-20T05:51:34.133Z,37.55
2023-05-20T05:52:34.438Z,39.16
2023-05-20T05:53:34.128Z,37.75
2023-05-20T05:54:34.172Z,38.71
2023-05-20T05:55:34.441Z,38.08
2023-05-20T05:56:34.297Z,38.67
2023-05-20T05:57:34.367Z,36.92
2023-05-20T05:58:34.440Z,31.98
2023-05-20T05:59:34.476Z,31.05
2023-05-20T06:00:34.648Z,26.99
2023-05-20T06:01:35.366Z,29.37
2023-05-20T06:02:34.755Z,28.28
2023-05-20T06:03:35.010Z,28.70
2023-05-20T06:04:34.803Z,27.70
2023-05-20T06:05:35.189Z,26.21
2023-05-20T06:06:34.938Z,26.89
2023-05-20T06:07:35.022Z,25.41
2023-05-20T06:08:35.088Z,27.84
2023-05-20T06:09:35.120Z,28.32
2023-05-20T06:10:35.189Z,25.51
2023-05-20T06:11:35.231Z,26.22
2023-05-20T06:12:35.272Z,26.05
2023-05-20T06:13:35.334Z,25.89
2023-05-20T06:14:35.401Z,26.58
2023-05-20T06:15:35.613Z,25.18
2023-05-20T06:16:35.525Z,26.58
2023-05-20T06:17:35.513Z,29.92
2023-05-20T06:18:35.517Z,28.14
2023-05-20T06:19:35.723Z,25.64
2023-05-20T06:20:35.537Z,25.12
2023-05-20T06:21:35.580Z,25.97
2023-05-20T06:22:35.598Z,27.84
2023-05-20T06:23:35.626Z,27.58
2023-05-20T06:24:35.637Z,27.19
2023-05-20T06:25:35.837Z,27.63
2023-05-20T06:26:35.689Z,28.03
2023-05-20T06:27:35.730Z,25.19
2023-05-20T06:28:35.761Z,26.40
2023-05-20T06:29:35.777Z,25.93
2023-05-20T06:30:35.846Z,26.67
2023-05-20T06:31:35.925Z,27.75
2023-05-20T06:32:35.919Z,29.41
2023-05-20T06:33:35.910Z,26.28
2023-05-20T06:34:35.954Z,26.46
2023-05-20T06:35:36.280Z,25.49
2023-05-20T06:36:36.024Z,25.52
2023-05-20T06:37:36.130Z,25.00
2023-05-20T06:38:36.143Z,26.60
2023-05-20T06:39:36.142Z,27.79
2023-05-20T06:40:36.165Z,26.78
2023-05-20T06:41:36.201Z,25.00
2023-05-20T06:42:36.172Z,26.26
2023-05-20T06:43:36.179Z,30.01
2023-05-20T06:44:36.232Z,32.46
2023-05-20T06:45:36.265Z,31.68
2023-05-20T06:46:36.414Z,26.66
2023-05-20T06:47:36.387Z,26.93
2023-05-20T06:48:36.379Z,25.67
2023-05-20T06:49:36.416Z,25.90
2023-05-20T06:50:36.466Z,29.22
2023-05-20T06:51:36.528Z,25.54
2023-05-20T06:52:36.572Z,27.54
2023-05-20T06:53:36.655Z,28.14
2023-05-20T06:54:36.625Z,28.01
2023-05-20T06:55:36.856Z,31.76
2023-05-20T06:56:36.655Z,28.95
2023-05-20T06:57:36.687Z,27.96
2023-05-20T06:58:36.721Z,27.22
2023-05-20T06:59:36.738Z,29.39
2023-05-20T07:00:36.759Z,27.77
2023-05-20T07:01:36.846Z,29.96
2023-05-20T07:02:36.860Z,31.51
2023-05-20T07:03:36.888Z,33.47
2023-05-20T07:04:36.910Z,32.35
2023-05-20T07:05:36.979Z,28.63
2023-05-20T07:06:36.977Z,26.73
2023-05-20T07:07:37.035Z,27.35
2023-05-20T07:08:37.023Z,25.00
2023-05-20T07:09:37.031Z,26.53
2023-05-20T07:10:37.044Z,25.59
2023-05-20T07:11:37.043Z,27.04
2023-05-20T07:12:37.176Z,25.66
2023-05-20T07:13:37.083Z,27.54
2023-05-20T07:14:37.103Z,29.23
2023-05-20T07:15:37.296Z,27.86
2023-05-20T07:16:37.252Z,28.36
2023-05-20T07:17:37.183Z,30.79
2023-05-20T07:18:37.160Z,26.73
2023-05-20T07:19:37.183Z,30.04
2023-05-20T07:20:37.186Z,24.83
2023-05-20T07:21:37.215Z,26.44
2023-05-20T07:22:37.208Z,25.00
2023-05-20T07:23:37.260Z,26.97
2023-05-20T07:24:37.280Z,26.37
2023-05-20T07:25:37.314Z,27.65
2023-05-20T07:26:37.299Z,25.73
2023-05-20T07:27:37.308Z,30.78
2023-05-20T07:28:37.353Z,28.31
2023-05-20T07:29:37.366Z,27.74
2023-05-20T07:30:37.385Z,26.45
2023-05-20T07:31:37.450Z,25.51
2023-05-20T07:32:37.443Z,27.77
2023-05-20T07:33:37.433Z,27.39
2023-05-20T07:34:37.451Z,27.27
2023-05-20T07:35:37.521Z,26.37
2023-05-20T07:36:37.545Z,26.55
2023-05-20T07:37:37.564Z,28.06
2023-05-20T07:38:38.488Z,29.11
2023-05-20T07:39:37.582Z,29.92
2023-05-20T07:40:37.568Z,31.93
2023-05-20T07:41:37.610Z,28.68
2023-05-20T07:42:37.584Z,25.39
2023-05-20T07:43:37.581Z,25.53
2023-05-20T07:44:37.581Z,25.00
2023-05-20T07:45:37.841Z,25.52
2023-05-20T07:46:37.702Z,26.54
2023-05-20T07:47:37.632Z,25.33
2023-05-20T07:48:37.579Z,26.22
2023-05-20T07:49:37.589Z,25.67
2023-05-20T07:50:37.585Z,25.98
2023-05-20T07:51:37.584Z,25.00
2023-05-20T07:52:51.793Z,25.73
2023-05-20T07:53:37.573Z,26.04
2023-05-20T07:54:37.574Z,26.05
2023-05-20T07:55:37.566Z,20.57
2023-05-20T07:56:37.560Z,18.73
2023-05-20T07:57:37.575Z,15.73
2023-05-20T07:58:37.569Z,27.14
2023-05-20T07:59:37.561Z,25.00
2023-05-20T08:00:37.605Z,25.39
2023-05-20T08:01:37.567Z,27.28
2023-05-20T08:02:37.617Z,25.00
2023-05-20T08:03:37.691Z,25.46
2023-05-20T08:04:37.688Z,26.67
2023-05-20T08:05:37.593Z,25.00
2023-05-20T08:06:37.587Z,26.73
2023-05-20T08:07:37.612Z,25.77
2023-05-20T08:08:37.626Z,27.46
2023-05-20T08:09:37.609Z,32.05
2023-05-20T08:10:37.637Z,31.13
2023-05-20T08:11:37.620Z,25.00
2023-05-20T08:12:37.616Z,27.10
2023-05-20T08:13:37.685Z,27.44
2023-05-20T08:14:37.612Z,28.65
2023-05-20T08:15:37.620Z,25.83
2023-05-20T08:16:37.655Z,27.67
2023-05-20T08:17:37.685Z,25.13
2023-05-20T08:18:37.641Z,25.82
2023-05-20T08:19:37.691Z,27.32
2023-05-20T08:20:37.678Z,30.04
2023-05-20T08:21:37.641Z,30.13
2023-05-20T08:22:37.868Z,26.74
2023-05-20T08:23:39.669Z,25.30
2023-05-20T08:24:37.650Z,25.43
2023-05-20T08:25:37.652Z,26.43
2023-05-20T08:26:37.656Z,27.41
2023-05-20T08:27:37.659Z,28.60
2023-05-20T08:28:37.672Z,35.27
2023-05-20T08:29:37.689Z,37.94
2023-05-20T08:30:37.656Z,28.35
2023-05-20T08:31:37.700Z,32.45
2023-05-20T08:32:37.775Z,30.91
2023-05-20T08:33:37.669Z,25.00
2023-05-20T08:34:37.681Z,25.00
2023-05-20T08:35:37.662Z,34.01
2023-05-20T08:36:37.678Z,29.86
2023-05-20T08:37:37.660Z,29.80
2023-05-20T08:38:37.712Z,29.00
2023-05-20T08:39:37.664Z,27.55
2023-05-20T08:40:37.665Z,25.10
2023-05-20T08:41:37.672Z,33.95
2023-05-20T08:42:37.677Z,38.45
2023-05-20T08:43:37.683Z,36.35
2023-05-20T08:44:37.689Z,35.05
2023-05-20T08:45:37.711Z,36.92
2023-05-20T08:46:37.734Z,39.18
2023-05-20T08:47:37.742Z,51.21
2023-05-20T08:48:37.721Z,63.50
2023-05-20T08:49:37.723Z,65.68
2023-05-20T08:50:37.725Z,56.40
2023-05-20T08:51:37.716Z,44.73
2023-05-20T08:52:37.777Z,51.10
2023-05-20T08:53:37.860Z,48.24
2023-05-20T08:54:37.908Z,42.65
2023-05-20T08:55:37.977Z,53.41
2023-05-20T08:56:38.048Z,48.09
2023-05-20T08:57:38.655Z,55.91
2023-05-20T08:58:38.198Z,57.44
2023-05-20T08:59:38.243Z,55.61
2023-05-20T09:00:38.308Z,63.31
2023-05-20T09:01:38.431Z,66.71
2023-05-20T09:02:38.487Z,62.06
2023-05-20T09:03:38.504Z,67.57
2023-05-20T09:04:38.631Z,66.94
2023-05-20T09:05:38.644Z,64.55
2023-05-20T09:06:38.702Z,68.96
2023-05-20T09:07:38.779Z,64.08
2023-05-20T09:08:38.837Z,64.18
2023-05-20T09:09:38.905Z,73.40
2023-05-20T09:10:39.026Z,73.10
2023-05-20T09:11:39.032Z,70.20
2023-05-20T09:12:39.101Z,70.39
2023-05-20T09:13:39.163Z,58.59
2023-05-20T09:14:39.238Z,55.60
2023-05-20T09:15:39.300Z,61.55
2023-05-20T09:16:39.494Z,54.40
2023-05-20T09:17:39.482Z,52.59
2023-05-20T09:18:39.530Z,43.27
2023-05-20T09:19:39.540Z,33.75
2023-05-20T09:20:39.604Z,25.51
2023-05-20T09:21:39.663Z,25.00
2023-05-20T09:22:39.722Z,25.19
2023-05-20T09:23:39.770Z,25.25
2023-05-20T09:24:39.847Z,25.02
2023-05-20T09:25:39.899Z,26.03
2023-05-20T09:26:39.958Z,25.00
2023-05-20T09:27:40.010Z,27.82
2023-05-20T09:28:40.070Z,30.52
2023-05-20T09:29:40.123Z,34.20
2023-05-20T09:30:40.185Z,25.98
2023-05-20T09:31:40.253Z,25.00
2023-05-20T09:32:40.338Z,27.13
2023-05-20T09:33:40.379Z,27.73
2023-05-20T09:34:40.394Z,25.00
2023-05-20T09:35:40.446Z,25.00
2023-05-20T09:36:40.497Z,25.00
2023-05-20T09:37:40.565Z,26.55
2023-05-20T09:38:40.634Z,28.49
2023-05-20T09:39:40.628Z,28.32
2023-05-20T09:40:40.857Z,28.83
2023-05-20T09:41:40.729Z,33.80
2023-05-20T09:42:40.771Z,25.00
2023-05-20T09:43:40.830Z,26.13
2023-05-20T09:44:40.857Z,26.76
2023-05-20T09:45:40.911Z,28.89
2023-05-20T09:46:40.981Z,25.28
2023-05-20T09:47:41.053Z,32.21
2023-05-20T09:48:41.048Z,25.00
2023-05-20T09:49:41.098Z,26.07
2023-05-20T09:50:41.151Z,25.00
2023-05-20T09:51:41.159Z,26.83
2023-05-20T09:52:41.201Z,28.96
2023-05-20T09:53:41.264Z,29.05
2023-05-20T09:54:41.287Z,26.84
2023-05-20T09:55:41.324Z,26.28
2023-05-20T09:56:41.371Z,25.93
2023-05-20T09:57:41.413Z,30.05
2023-05-20T09:58:41.467Z,26.89
2023-05-20T09:59:41.491Z,27.15
2023-05-20T10:00:41.541Z,31.05
2023-05-20T10:01:41.626Z,26.12
2023-05-20T10:02:41.712Z,27.92
2023-05-20T10:03:43.965Z,25.00
2023-05-20T10:04:41.689Z,32.33
2023-05-20T10:05:41.708Z,37.42
2023-05-20T10:06:41.684Z,37.96
2023-05-20T10:07:42.505Z,31.32
2023-05-20T10:08:41.654Z,32.49
2023-05-20T10:09:41.641Z,27.84
2023-05-20T10:10:41.643Z,28.93
2023-05-20T10:11:41.638Z,28.97
2023-05-20T10:12:41.643Z,31.12
2023-05-20T10:13:41.691Z,37.17
2023-05-20T10:14:42.198Z,29.75
2023-05-20T10:15:41.638Z,30.37
2023-05-20T10:16:41.658Z,25.35
2023-05-20T10:17:41.707Z,25.17
2023-05-20T10:18:41.806Z,31.18
2023-05-20T10:19:41.802Z,32.21
2023-05-20T10:20:41.834Z,26.54
2023-05-20T10:21:41.891Z,25.90
2023-05-20T10:22:41.916Z,25.13
2023-05-20T10:23:41.956Z,25.34
2023-05-20T10:24:41.994Z,25.57
2023-05-20T10:25:42.042Z,25.00
2023-05-20T10:26:42.107Z,26.08
2023-05-20T10:27:42.126Z,26.79
2023-05-20T10:28:42.162Z,28.20
2023-05-20T10:29:42.216Z,36.99
2023-05-20T10:30:44.338Z,41.30
2023-05-20T10:31:42.232Z,43.87
2023-05-20T10:32:42.352Z,47.11
2023-05-20T10:33:42.307Z,48.87
2023-05-20T10:34:42.201Z,45.36
2023-05-20T10:35:42.187Z,46.68
2023-05-20T10:36:42.815Z,48.41
2023-05-20T10:37:42.216Z,50.54
2023-05-20T10:38:42.176Z,52.50
2023-05-20T10:39:42.168Z,53.41
2023-05-20T10:40:42.165Z,51.13
2023-05-20T10:41:42.152Z,54.92
2023-05-20T10:42:42.163Z,56.12
2023-05-20T10:43:42.134Z,62.09
2023-05-20T10:44:42.122Z,64.01
2023-05-20T10:45:42.117Z,70.73
2023-05-20T10:47:06.710Z,73.11
2023-05-20T10:47:42.265Z,73.42
2023-05-20T10:48:42.374Z,73.72
2023-05-20T10:49:42.109Z,75.01
2023-05-20T10:50:42.113Z,78.28
2023-05-20T10:51:42.081Z,83.99
2023-05-20T10:52:42.081Z,89.99
2023-05-20T10:53:42.086Z,86.50
2023-05-20T10:54:42.053Z,85.45
2023-05-20T10:55:42.053Z,86.76
2023-05-20T10:56:42.022Z,89.27
2023-05-20T10:57:42.030Z,88.77
2023-05-20T10:58:42.006Z,90.84
2023-05-20T10:59:42.015Z,95.97
2023-05-20T11:00:42.067Z,102.30
2023-05-20T11:01:42.075Z,102.13
2023-05-20T11:02:42.063Z,101.21
2023-05-20T11:03:42.088Z,103.65
2023-05-20T11:04:41.950Z,103.79
2023-05-20T11:05:41.933Z,105.65
2023-05-20T11:06:41.927Z,108.23
2023-05-20T11:07:41.916Z,110.98
2023-05-20T11:08:41.928Z,111.64
2023-05-20T11:09:41.923Z,106.42
2023-05-20T11:10:41.900Z,109.49
2023-05-20T11:11:41.889Z,110.64
2023-05-20T11:12:41.920Z,113.80
2023-05-20T11:13:41.890Z,114.13
2023-05-20T11:14:41.880Z,113.97
2023-05-20T11:15:41.897Z,113.54
2023-05-20T11:16:41.984Z,114.69
2023-05-20T11:17:41.982Z,116.50
2023-05-20T11:18:42.086Z,114.74
2023-05-20T11:19:42.040Z,116.82
2023-05-20T11:20:42.070Z,115.11
2023-05-20T11:21:42.102Z,117.16
2023-05-20T11:22:42.135Z,116.37
2023-05-20T11:23:42.172Z,119.52
2023-05-20T11:24:42.202Z,120.57
2023-05-20T11:25:42.261Z,121.31
2023-05-20T11:26:42.263Z,121.01
2023-05-20T11:27:42.305Z,120.56
2023-05-20T11:28:42.341Z,123.42
2023-05-20T11:29:42.387Z,120.85
2023-05-20T11:30:42.428Z,119.24
2023-05-20T11:31:42.483Z,119.39
2023-05-20T11:32:42.519Z,124.84
2023-05-20T11:33:42.515Z,123.64
2023-05-20T11:34:42.604Z,124.47
2023-05-20T11:35:42.585Z,123.76
2023-05-20T11:36:42.614Z,120.13
2023-05-20T11:37:42.657Z,117.02
2023-05-20T11:38:42.687Z,112.32
2023-05-20T11:39:42.712Z,118.26
2023-05-20T11:40:50.542Z,119.23
2023-05-20T11:41:42.763Z,119.43
2023-05-20T11:42:42.729Z,119.26
2023-05-20T11:43:42.790Z,119.32
2023-05-20T11:44:42.710Z,114.90
2023-05-20T11:45:42.716Z,115.60
2023-05-20T11:46:42.855Z,113.70
2023-05-20T11:47:42.715Z,111.29
2023-05-20T11:48:42.689Z,112.34
2023-05-20T11:49:42.689Z,112.55
2023-05-20T11:50:42.722Z,115.60
2023-05-20T11:51:42.659Z,110.54
2023-05-20T11:52:42.651Z,104.56
2023-05-20T11:53:42.651Z,106.83
2023-05-20T11:54:42.639Z,104.07
2023-05-20T11:55:42.618Z,108.55
2023-05-20T11:56:42.607Z,110.54
2023-05-20T11:57:42.640Z,108.63
2023-05-20T11:58:42.585Z,108.40
2023-05-20T11:59:42.582Z,110.08
2023-05-20T12:00:51.326Z,113.04
2023-05-20T12:01:42.590Z,113.22
2023-05-20T12:02:42.638Z,113.58
2023-05-20T12:03:42.645Z,113.70
2023-05-20T12:04:42.588Z,113.30
2023-05-20T12:05:42.534Z,111.51
2023-05-20T12:06:42.528Z,111.54
2023-05-20T12:07:42.540Z,116.56
2023-05-20T12:08:42.559Z,118.47
2023-05-20T12:09:42.524Z,119.32
2023-05-20T12:10:42.510Z,119.30
2023-05-20T12:11:42.573Z,116.57
2023-05-20T12:12:42.513Z,117.40
2023-05-20T12:13:42.539Z,116.94
2023-05-20T12:14:42.507Z,119.82
2023-05-20T12:15:42.525Z,118.12
2023-05-20T12:16:42.510Z,119.40
2023-05-20T12:17:42.552Z,119.60
2023-05-20T12:18:42.559Z,119.04
2023-05-20T12:19:42.542Z,119.12
2023-05-20T12:20:42.477Z,119.19
2023-05-20T12:21:42.502Z,123.69
2023-05-20T12:22:42.457Z,128.04
2023-05-20T12:23:42.474Z,131.53
2023-05-20T12:24:42.453Z,132.20
2023-05-20T12:25:42.431Z,132.43
2023-05-20T12:26:42.428Z,128.85
2023-05-20T12:27:42.405Z,123.18
2023-05-20T12:28:42.400Z,124.97
2023-05-20T12:29:42.415Z,126.75
2023-05-20T12:30:42.402Z,125.22
2023-05-20T12:31:42.425Z,124.24
2023-05-20T12:32:42.379Z,121.70
2023-05-20T12:33:42.366Z,123.47
2023-05-20T12:34:42.354Z,126.46
2023-05-20T12:35:42.382Z,126.15
2023-05-20T12:36:42.321Z,120.67
2023-05-20T12:37:42.321Z,125.71
2023-05-20T12:38:42.311Z,124.97
2023-05-20T12:39:42.300Z,123.14
2023-05-20T12:40:42.301Z,117.40
2023-05-20T12:41:42.304Z,119.88
2023-05-20T12:42:42.334Z,119.63
2023-05-20T12:43:42.364Z,117.81
2023-05-20T12:44:42.390Z,121.54
2023-05-20T12:45:42.449Z,123.50
2023-05-20T12:46:42.461Z,120.43
2023-05-20T12:47:42.516Z,119.55
2023-05-20T12:48:42.775Z,115.55
2023-05-20T12:49:42.518Z,115.44